.
WxDataArchive / Data Records for 2007-05-17
2007-05-16 May 2007 2007-05-18

Data Records for Thursday, 17 May 2007

Time	Temp	Chill	HIndex	Humid	Dewpt	 Wind 	HiWind	WindDir	Rain 	Barom 
-----	----	-----	------	-----	-----	------	------	-------	-----	----- 
00:00	49.8	49.8	49.8	77	42.9	0	1	270	0.00	30.003 
00:05	49.6	49.6	49.6	78	43.0	0	0	---	0.00	30.004 
00:10	49.6	49.6	49.6	77	42.7	0	1	270	0.00	30.011 
00:15	49.8	49.8	49.8	76	42.5	0	1	270	0.00	30.012 
00:20	49.8	49.8	49.8	76	42.5	0	1	270	0.00	30.020 
00:25	49.9	49.9	49.9	77	43.0	0	1	270	0.00	30.024 
00:30	49.9	49.9	49.9	77	43.0	0	1	270	0.00	30.025 
00:35	49.9	49.9	49.9	80	44.0	0	1	270	0.01	30.022 
00:40	49.6	49.6	49.6	81	44.0	0	1	270	0.00	30.020 
00:45	49.2	49.2	49.2	82	43.9	0	1	270	0.00	30.024 
00:50	48.9	48.9	48.9	84	44.3	0	1	270	0.01	30.025 
00:55	48.6	48.6	48.6	85	44.3	0	1	270	0.00	30.030 
01:00	48.5	48.5	48.5	87	44.8	0	1	270	0.00	30.038 
01:05	48.2	48.2	48.2	87	44.5	0	1	270	0.00	30.030 
01:10	48.2	48.2	48.2	88	44.8	0	1	270	0.01	30.023 
01:15	48.0	48.0	48.0	88	44.6	0	1	270	0.00	30.024 
01:20	47.9	47.9	47.9	89	44.8	0	1	270	0.00	30.029 
01:25	47.9	47.9	47.9	89	44.8	0	1	270	0.00	30.025 
01:30	47.9	47.9	47.9	90	45.1	0	1	270	0.00	30.023 
01:35	47.7	47.7	47.7	90	44.9	0	1	270	0.00	30.021 
01:40	47.7	47.7	47.7	90	44.9	0	1	270	0.00	30.023 
01:45	47.6	47.6	47.6	90	44.8	0	1	270	0.00	30.008 
01:50	47.6	47.6	47.6	90	44.8	0	1	270	0.00	30.012 
01:55	47.6	47.6	47.6	91	45.1	0	0	---	0.00	30.013 
02:00	47.6	47.6	47.6	91	45.1	0	1	270	0.00	30.017 
02:05	47.6	47.6	47.6	91	45.1	0	0	---	0.00	30.009 
02:10	47.4	47.4	47.4	91	44.9	0	0	---	0.00	30.013 
02:15	47.4	47.4	47.4	92	45.2	0	0	---	0.00	30.013 
02:20	47.4	47.4	47.4	92	45.2	0	0	---	0.00	30.009 
02:25	47.4	47.4	47.4	92	45.2	0	0	---	0.00	30.010 
02:30	47.3	47.3	47.3	92	45.1	0	0	---	0.00	30.015 
02:35	47.1	47.1	47.1	92	44.9	0	0	---	0.00	30.019 
02:40	47.0	47.0	47.0	92	44.8	0	0	---	0.00	30.020 
02:45	47.0	47.0	47.0	92	44.8	0	0	---	0.00	30.021 
02:50	46.8	46.8	46.8	92	44.6	0	0	---	0.00	30.022 
02:55	46.8	46.8	46.8	92	44.6	0	0	---	0.00	30.022 
03:00	46.5	46.5	46.5	92	44.3	0	0	---	0.00	30.020 
03:05	46.4	46.4	46.4	92	44.2	0	0	---	0.00	30.023 
03:10	46.1	46.1	46.1	92	43.9	0	0	---	0.00	30.019 
03:15	46.0	46.0	46.0	92	43.8	0	0	---	0.00	30.014 
03:20	45.7	45.7	45.7	92	43.5	0	0	---	0.00	30.018 
03:25	45.4	45.4	45.4	92	43.2	0	0	---	0.00	30.021 
03:30	45.2	45.2	45.2	92	43.0	0	0	---	0.00	30.024 
03:35	45.1	45.1	45.1	92	42.9	0	0	---	0.00	30.026 
03:40	44.8	44.8	44.8	93	42.9	0	0	---	0.00	30.025 
03:45	44.8	44.8	44.8	93	42.9	0	0	---	0.00	30.025 
03:50	44.6	44.6	44.6	93	42.7	0	0	---	0.00	30.028 
03:55	44.5	44.5	44.5	94	42.9	0	0	---	0.00	30.032 
04:00	44.5	44.5	44.5	94	42.9	0	0	---	0.00	30.035 
04:05	44.6	44.6	44.6	94	43.0	0	0	---	0.00	30.039 
04:10	44.9	44.9	44.9	95	43.6	0	1	270	0.00	30.038 
04:15	45.1	45.1	45.1	95	43.8	0	1	270	0.00	30.037 
04:20	45.2	45.2	45.2	95	43.9	0	1	270	0.00	30.037 
04:25	45.1	45.1	45.1	95	43.8	0	0	---	0.00	30.038 
04:30	45.1	45.1	45.1	95	43.8	0	0	---	0.00	30.033 
04:35	44.9	44.9	44.9	95	43.6	0	0	---	0.00	30.032 
04:40	45.1	45.1	45.1	95	43.8	0	1	270	0.00	30.036 
04:45	45.1	45.1	45.1	95	43.8	0	0	---	0.00	30.040 
04:50	45.1	45.1	45.1	95	43.8	0	0	---	0.00	30.045 
04:55	45.1	45.1	45.1	95	43.8	0	0	---	0.00	30.049 
05:00	45.1	45.1	45.1	96	44.0	0	0	---	0.00	30.046 
05:05	45.1	45.1	45.1	96	44.0	0	0	---	0.00	30.047 
05:10	45.1	45.1	45.1	96	44.0	0	0	---	0.00	30.048 
05:15	45.1	45.1	45.1	96	44.0	0	0	---	0.00	30.052 
05:20	45.1	45.1	45.1	96	44.0	0	1	270	0.00	30.054 
05:25	45.1	45.1	45.1	96	44.0	0	0	---	0.00	30.057 
05:30	45.2	45.2	45.2	96	44.1	0	0	---	0.00	30.057 
05:35	45.1	45.1	45.1	96	44.0	0	1	270	0.00	30.059 
05:40	45.1	45.1	45.1	95	43.8	0	0	---	0.00	30.059 
05:45	45.1	45.1	45.1	95	43.8	0	2	270	0.00	30.058 
05:50	45.1	45.1	45.1	95	43.8	0	0	---	0.00	30.058 
05:55	45.2	45.2	45.2	95	43.9	0	1	270	0.00	30.060 
06:00	45.1	45.1	45.1	95	43.8	0	0	---	0.00	30.060 
06:05	45.2	45.2	45.2	95	43.9	0	1	270	0.00	30.064 
06:10	45.2	45.2	45.2	94	43.6	0	2	180	0.00	30.065 
06:15	45.2	45.2	45.2	94	43.6	0	1	180	0.00	30.071 
06:20	45.4	45.4	45.4	94	43.8	0	1	180	0.00	30.073 
06:25	45.4	45.4	45.4	93	43.5	0	1	180	0.00	30.075 
06:30	45.5	45.5	45.5	92	43.3	0	3	248	0.00	30.076 
06:35	45.7	45.7	45.7	92	43.5	0	1	248	0.00	30.079 
06:40	45.7	45.7	45.7	91	43.2	0	2	270	0.00	30.083 
06:45	45.7	45.7	45.7	89	42.6	0	2	270	0.00	30.087 
06:50	45.7	45.7	45.7	87	42.1	0	2	270	0.00	30.089 
06:55	45.7	45.7	45.7	84	41.1	1	4	135	0.00	30.090 
07:00	45.8	45.8	45.8	84	41.2	0	3	68	0.00	30.092 
07:05	46.0	46.0	46.0	83	41.1	0	2	202	0.00	30.097 
07:10	46.1	46.1	46.1	84	41.5	0	1	202	0.00	30.103 
07:15	46.2	46.2	46.2	84	41.6	0	2	202	0.00	30.105 
07:20	46.4	46.4	46.4	83	41.5	0	3	180	0.00	30.107 
07:25	46.4	46.4	46.4	82	41.2	0	2	90	0.00	30.107 
07:30	46.7	46.7	46.7	83	41.8	0	2	90	0.00	30.106 
07:35	46.8	46.8	46.8	82	41.6	0	3	112	0.00	30.106 
07:40	47.0	47.0	47.0	81	41.5	1	3	112	0.00	30.106 
07:45	47.4	47.4	47.4	81	41.9	0	3	112	0.00	30.108 
07:50	47.6	47.6	47.6	79	41.4	0	2	0	0.00	30.110 
07:55	47.7	47.7	47.7	79	41.5	1	3	90	0.00	30.110 
08:00	48.5	48.5	48.5	79	42.3	1	4	90	0.00	30.111 
08:05	49.5	49.5	49.5	78	42.9	0	2	112	0.00	30.117 
08:10	50.2	50.2	50.2	74	42.2	1	3	270	0.00	30.117 
08:15	50.8	50.8	50.8	72	42.1	2	5	135	0.00	30.117 
08:20	50.8	50.8	50.8	72	42.1	1	2	112	0.00	30.120 
08:25	51.0	51.0	51.0	72	42.3	2	6	68	0.00	30.123 
08:30	50.7	50.7	50.7	72	42.0	1	9	135	0.00	30.126 
08:35	50.8	50.8	50.8	74	42.8	1	6	90	0.00	30.129 
08:40	51.3	51.3	51.3	73	42.9	1	4	270	0.00	30.131 
08:45	51.9	51.9	51.9	71	42.8	1	4	270	0.00	30.129 
08:50	52.2	52.2	52.2	72	43.4	2	6	292	0.00	30.130 
08:55	52.3	52.3	52.3	67	41.7	1	4	45	0.00	30.132 
09:00	52.0	52.0	52.0	68	41.8	1	3	68	0.00	30.132 
09:05	51.6	51.6	51.6	67	41.0	1	2	0	0.00	30.134 
09:10	51.7	51.7	51.7	71	42.6	1	4	0	0.00	30.135 
09:15	52.2	52.2	52.2	69	42.3	1	4	338	0.00	30.136 
09:20	51.9	51.9	51.9	66	40.9	1	4	292	0.00	30.137 
09:25	51.4	51.4	51.4	69	41.6	1	3	68	0.00	30.138 
09:30	51.7	51.7	51.7	69	41.9	1	5	0	0.00	30.140 
09:35	53.2	53.2	53.2	62	40.5	2	9	112	0.00	30.139 
09:40	53.9	53.9	53.9	65	42.4	1	7	270	0.00	30.137 
09:45	53.8	53.8	53.8	62	41.1	2	5	270	0.00	30.137 
09:50	54.8	54.8	54.8	61	41.6	2	6	90	0.00	30.137 
09:55	55.0	55.0	55.0	58	40.5	2	6	90	0.00	30.137 
10:00	55.1	55.1	55.1	57	40.1	3	7	112	0.00	30.137 
10:05	54.7	54.7	54.7	62	41.9	1	7	112	0.00	30.136 
10:10	55.0	55.0	55.0	62	42.2	1	7	45	0.00	30.136 
10:15	55.3	55.3	55.3	60	41.7	1	5	202	0.00	30.138 
10:20	55.7	55.7	55.7	61	42.5	1	5	292	0.00	30.138 
10:25	56.6	56.6	56.6	62	43.7	1	4	90	0.00	30.140 
10:30	56.3	56.3	56.3	58	41.7	1	9	22	0.00	30.145 
10:35	54.5	54.5	54.5	56	39.1	1	4	315	0.00	30.148 
10:40	53.6	53.6	53.6	58	39.2	1	4	0	0.00	30.150 
10:45	53.9	53.9	53.9	56	38.6	2	6	135	0.00	30.147 
10:50	55.4	55.4	55.4	56	40.0	3	9	112	0.00	30.147 
10:55	55.7	55.7	55.7	55	39.8	2	7	112	0.00	30.148 
11:00	56.0	56.0	56.0	56	40.5	2	6	45	0.00	30.149 
11:05	55.4	55.4	55.4	57	40.4	1	4	112	0.00	30.149 
11:10	54.5	54.5	54.5	57	39.6	2	5	68	0.00	30.153 
11:15	53.3	53.3	53.3	57	38.5	2	4	338	0.00	30.160 
11:20	52.0	52.0	52.0	62	39.4	1	3	338	0.00	30.166 
11:25	51.4	51.4	51.4	64	39.6	2	7	270	0.00	30.167 
11:30	51.1	51.1	51.1	65	39.7	2	6	270	0.00	30.170 
11:35	51.0	51.0	51.0	66	40.0	1	6	45	0.00	30.172 
11:40	51.0	51.0	51.0	66	40.0	1	3	22	0.00	30.171 
11:45	51.1	51.1	51.1	64	39.4	1	4	0	0.00	30.172 
11:50	51.6	51.6	51.6	64	39.8	1	4	270	0.00	30.172 
11:55	52.2	52.2	52.2	62	39.6	1	3	270	0.00	30.171 
12:00	52.8	52.8	52.8	62	40.1	1	4	315	0.00	30.177 
12:05	52.6	52.6	52.6	62	40.0	2	6	22	0.00	30.178 
12:10	52.9	52.9	52.9	60	39.4	2	7	112	0.00	30.176 
12:15	53.2	53.2	53.2	60	39.7	2	5	90	0.00	30.174 
12:20	53.3	53.3	53.3	61	40.2	1	3	0	0.00	30.175 
12:25	53.1	53.1	53.1	58	38.7	2	6	315	0.00	30.173 
12:30	53.2	53.2	53.2	60	39.7	1	6	338	0.00	30.177 
12:35	52.9	52.9	52.9	58	38.5	2	6	338	0.00	30.180 
12:40	52.9	52.9	52.9	59	39.0	1	4	270	0.00	30.180 
12:45	53.5	53.5	53.5	61	40.4	2	6	112	0.00	30.180 
12:50	53.3	53.3	53.3	61	40.2	1	5	315	0.00	30.180 
12:55	53.8	53.8	53.8	62	41.1	1	5	338	0.00	30.179 
13:00	54.8	54.8	54.8	60	41.2	1	4	0	0.00	30.173 
13:05	54.2	54.2	54.2	58	39.7	2	5	292	0.00	30.180 
13:10	53.1	53.1	53.1	59	39.2	1	5	22	0.00	30.185 
13:15	53.5	53.5	53.5	63	41.2	1	5	158	0.00	30.183 
13:20	54.2	54.2	54.2	58	39.7	1	5	90	0.00	30.181 
13:25	54.2	54.2	54.2	57	39.3	1	6	338	0.00	30.184 
13:30	53.9	53.9	53.9	55	38.1	1	4	292	0.00	30.183 
13:35	53.5	53.5	53.5	56	38.2	1	4	338	0.00	30.184 
13:40	53.6	53.6	53.6	57	38.7	2	6	45	0.00	30.185 
13:45	53.9	53.9	53.9	61	40.8	2	5	90	0.00	30.184 
13:50	54.2	54.2	54.2	56	38.8	1	3	270	0.00	30.185 
13:55	55.1	55.1	55.1	61	41.9	2	8	90	0.00	30.186 
14:00	55.4	55.4	55.4	58	40.9	1	6	338	0.00	30.186 
14:05	55.7	55.7	55.7	55	39.8	2	6	45	0.00	30.188 
14:10	56.2	56.2	56.2	52	38.8	1	7	45	0.00	30.188 
14:15	55.7	55.7	55.7	54	39.3	2	6	68	0.00	30.188 
14:20	54.7	54.7	54.7	55	38.9	1	7	112	0.00	30.191 
14:25	53.6	53.6	53.6	56	38.3	1	3	90	0.00	30.196 
14:30	53.1	53.1	53.1	58	38.7	1	3	0	0.00	30.198 
14:35	52.6	52.6	52.6	62	40.0	1	6	0	0.00	30.201 
14:40	52.0	52.0	52.0	63	39.8	1	7	292	0.00	30.203 
14:45	52.0	52.0	52.0	66	41.0	1	5	22	0.00	30.203 
14:50	52.5	52.5	52.5	64	40.7	1	6	112	0.00	30.201 
14:55	52.6	52.6	52.6	64	40.8	1	5	45	0.00	30.201 
15:00	52.8	52.8	52.8	64	41.0	1	5	90	0.00	30.201 
15:05	52.9	52.9	52.9	65	41.5	2	6	90	0.00	30.200 
15:10	53.3	53.3	53.3	65	41.8	1	6	90	0.00	30.200 
15:15	53.9	53.9	53.9	64	42.0	2	6	112	0.00	30.199 
15:20	54.5	54.5	54.5	59	40.5	1	5	0	0.00	30.198 
15:25	54.5	54.5	54.5	59	40.5	1	4	0	0.00	30.197 
15:30	54.5	54.5	54.5	58	40.0	1	3	248	0.00	30.197 
15:35	54.5	54.5	54.5	59	40.5	1	4	22	0.00	30.196 
15:40	54.7	54.7	54.7	57	39.8	1	5	45	0.00	30.196 
15:45	55.1	55.1	55.1	58	40.6	2	5	112	0.00	30.194 
15:50	55.0	55.0	55.0	55	39.1	2	6	90	0.00	30.194 
15:55	55.0	55.0	55.0	57	40.0	1	4	292	0.00	30.193 
16:00	54.7	54.7	54.7	58	40.2	1	9	45	0.00	30.195 
16:05	54.7	54.7	54.7	59	40.7	1	9	90	0.00	30.195 
16:10	54.7	54.7	54.7	56	39.3	3	6	112	0.00	30.196 
16:15	54.7	54.7	54.7	59	40.7	2	6	112	0.00	30.194 
16:20	55.0	55.0	55.0	59	40.9	1	4	112	0.00	30.193 
16:25	55.4	55.4	55.4	58	40.9	1	5	112	0.00	30.194 
16:30	55.0	55.0	55.0	56	39.6	1	2	68	0.00	30.194 
16:35	54.7	54.7	54.7	58	40.2	1	6	68	0.00	30.197 
16:40	55.1	55.1	55.1	54	38.8	1	4	112	0.00	30.195 
16:45	55.7	55.7	55.7	54	39.3	1	7	90	0.00	30.196 
16:50	56.0	56.0	56.0	53	39.1	1	6	45	0.00	30.198 
16:55	55.9	55.9	55.9	54	39.5	1	4	248	0.00	30.200 
17:00	55.4	55.4	55.4	52	38.1	1	7	315	0.00	30.201 
17:05	55.3	55.3	55.3	55	39.4	1	7	90	0.00	30.201 
17:10	55.7	55.7	55.7	57	40.7	1	4	90	0.00	30.202 
17:15	55.9	55.9	55.9	54	39.5	2	7	112	0.00	30.203 
17:20	55.9	55.9	55.9	51	38.0	2	7	112	0.00	30.203 
17:25	55.6	55.6	55.6	50	37.3	3	7	90	0.00	30.203 
17:30	55.3	55.3	55.3	51	37.5	2	5	112	0.00	30.204 
17:35	55.0	55.0	55.0	52	37.7	2	4	135	0.00	30.205 
17:40	54.8	54.8	54.8	52	37.5	2	7	112	0.00	30.204 
17:45	55.1	55.1	55.1	54	38.8	1	2	112	0.00	30.205 
17:50	55.1	55.1	55.1	52	37.8	2	4	112	0.00	30.204 
17:55	55.4	55.4	55.4	53	38.6	0	1	90	0.00	30.204 
18:00	55.9	55.9	55.9	55	40.0	1	4	68	0.00	30.202 
18:05	55.9	55.9	55.9	52	38.5	2	6	90	0.00	30.201 
18:10	56.0	56.0	56.0	52	38.6	1	5	90	0.00	30.203 
18:15	55.6	55.6	55.6	51	37.8	2	6	90	0.00	30.204 
18:20	55.1	55.1	55.1	53	38.3	1	4	112	0.00	30.205 
18:25	54.8	54.8	54.8	54	38.5	2	6	90	0.00	30.205 
18:30	54.5	54.5	54.5	54	38.2	1	4	68	0.00	30.206 
18:35	54.4	54.4	54.4	54	38.1	1	4	112	0.00	30.209 
18:40	54.4	54.4	54.4	53	37.6	2	5	112	0.00	30.211 
18:45	54.4	54.4	54.4	55	38.6	1	4	112	0.00	30.213 
18:50	54.4	54.4	54.4	54	38.1	1	3	135	0.00	30.213 
18:55	54.4	54.4	54.4	54	38.1	1	4	112	0.00	30.213 
19:00	54.2	54.2	54.2	54	37.9	2	4	90	0.00	30.212 
19:05	54.1	54.1	54.1	54	37.8	2	5	90	0.00	30.214 
19:10	53.9	53.9	53.9	54	37.6	1	5	112	0.00	30.215 
19:15	53.8	53.8	53.8	56	38.5	1	2	112	0.00	30.215 
19:20	53.6	53.6	53.6	56	38.3	0	2	112	0.00	30.216 
19:25	53.3	53.3	53.3	57	38.5	0	1	112	0.00	30.216 
19:30	53.2	53.2	53.2	58	38.8	0	1	112	0.00	30.216 
19:35	52.9	52.9	52.9	62	40.2	0	1	112	0.00	30.217 
19:40	52.5	52.5	52.5	60	39.0	0	0	---	0.00	30.218 
19:45	52.2	52.2	52.2	61	39.2	0	0	---	0.00	30.220 
19:50	51.6	51.6	51.6	62	39.0	0	0	---	0.00	30.220 
19:55	51.0	51.0	51.0	62	38.4	0	0	---	0.00	30.221 
20:00	50.5	50.5	50.5	63	38.4	0	0	---	0.00	30.222 
20:05	50.2	50.2	50.2	65	38.9	0	0	---	0.00	30.219 
20:10	49.8	49.8	49.8	66	38.9	0	0	---	0.00	30.219 
20:15	49.5	49.5	49.5	67	39.0	0	0	---	0.00	30.220 
20:20	49.1	49.1	49.1	68	39.0	0	0	---	0.00	30.221 
20:25	48.6	48.6	48.6	69	38.9	0	0	---	0.00	30.223 
20:30	48.2	48.2	48.2	70	38.9	0	0	---	0.00	30.223 
20:35	47.7	47.7	47.7	70	38.4	0	0	---	0.00	30.223 
20:40	47.3	47.3	47.3	72	38.7	0	0	---	0.00	30.227 
20:45	47.0	47.0	47.0	73	38.8	0	0	---	0.00	30.228 
20:50	46.8	46.8	46.8	74	39.0	0	0	---	0.00	30.231 
20:55	46.5	46.5	46.5	75	39.0	0	0	---	0.00	30.231 
21:00	46.1	46.1	46.1	76	39.0	0	0	---	0.00	30.232 
21:05	45.8	45.8	45.8	76	38.7	0	0	---	0.00	30.232 
21:10	45.4	45.4	45.4	77	38.6	0	0	---	0.00	30.233 
21:15	45.2	45.2	45.2	77	38.4	0	0	---	0.00	30.232 
21:20	44.9	44.9	44.9	78	38.5	0	0	---	0.00	30.233 
21:25	44.8	44.8	44.8	79	38.7	0	0	---	0.00	30.234 
21:30	44.5	44.5	44.5	79	38.4	0	0	---	0.00	30.234 
21:35	44.3	44.3	44.3	80	38.5	0	0	---	0.00	30.237 
21:40	44.1	44.1	44.1	80	38.3	0	0	---	0.00	30.236 
21:45	43.9	43.9	43.9	81	38.5	0	0	---	0.00	30.237 
21:50	43.6	43.6	43.6	83	38.8	0	0	---	0.00	30.239 
21:55	43.3	43.3	43.3	84	38.8	0	0	---	0.00	30.240 
22:00	43.1	43.1	43.1	84	38.6	0	0	---	0.00	30.243 
22:05	43.1	43.1	43.1	85	38.9	0	0	---	0.00	30.245 
22:10	42.9	42.9	42.9	85	38.7	0	0	---	0.00	30.246 
22:15	42.9	42.9	42.9	85	38.7	0	0	---	0.00	30.247 
22:20	42.8	42.8	42.8	85	38.6	0	1	112	0.00	30.248 
22:25	42.6	42.6	42.6	86	38.7	0	0	---	0.00	30.248 
22:30	42.5	42.5	42.5	86	38.6	0	0	---	0.00	30.248 
22:35	42.3	42.3	42.3	86	38.4	0	0	---	0.00	30.248 
22:40	42.2	42.2	42.2	86	38.3	0	0	---	0.00	30.247 
22:45	41.9	41.9	41.9	87	38.3	0	0	---	0.00	30.248 
22:50	41.8	41.8	41.8	87	38.2	0	0	---	0.00	30.246 
22:55	41.6	41.6	41.6	87	38.0	0	0	---	0.00	30.248 
23:00	41.3	41.3	41.3	88	38.0	0	0	---	0.00	30.248 
23:05	41.2	41.2	41.2	88	37.9	0	0	---	0.00	30.249 
23:10	41.1	41.1	41.1	88	37.8	0	0	---	0.00	30.249 
23:15	40.8	40.8	40.8	89	37.8	0	0	---	0.00	30.250 
23:20	40.6	40.6	40.6	89	37.6	0	0	---	0.00	30.250 
23:25	40.5	40.5	40.5	89	37.5	0	0	---	0.00	30.250 
23:30	40.3	40.3	40.3	90	37.6	0	0	---	0.00	30.253 
23:35	40.2	40.2	40.2	90	37.5	0	0	---	0.00	30.251 
23:40	40.1	40.1	40.1	90	37.4	0	0	---	0.00	30.250 
23:45	39.9	39.9	39.9	91	37.5	0	0	---	0.00	30.249 
23:50	39.8	39.8	39.8	91	37.4	0	0	---	0.00	30.249 
23:55	39.6	39.6	39.6	91	37.2	0	0	---	0.00	30.248 

CoCoRaHS
IN-AL-39
A2 Web Hosting
Creative Commons License
GoDaddy
Look for:

loaded 2017-10-20 20:03:25 • last modified 2010-11-18 10:43:29
Privacy PolicyDisclaimer
• wx.awcolley.com is powered by PmWiki v.2002016 •
• all content (unless otherwise noted) © 2017 A W Colley